Time;durP1;ratioP1;P1;durP2;ratioP2;P2;SDS_P1;SDS_P2;PMS_P1;PMS_P2;Temp;Humidity;BMP_temperature;BMP_pressure;BME280_temperature;BME280_humidity;BME280_pressure;Samples;Min_cycle;Max_cycle;Signal;HPM_P1;HPM_P2
2024/04/05 00:02:03;;;;;;;7.30;1.60;;;;;;;;;;5026071;28;20099;-59
2024/04/05 00:04:28;;;;;;;4.43;1.77;;;;;;;;;;5035904;28;20407;-59
2024/04/05 00:06:54;;;;;;;5.07;1.92;;;;;;;;;;5026142;28;20041;-60
2024/04/05 00:09:19;;;;;;;3.35;1.63;;;;;;;;;;5026653;28;20451;-59
2024/04/05 00:11:44;;;;;;;5.07;1.80;;;;;;;;;;5037674;28;20665;-63
2024/04/05 00:14:10;;;;;;;5.25;1.75;;;;;;;;;;5026221;28;20056;-58
2024/04/05 00:16:35;;;;;;;6.78;2.00;;;;;;;;;;5026009;28;20033;-60
2024/04/05 00:19:00;;;;;;;5.13;1.67;;;;;;;;;;5042257;28;20060;-59
2024/04/05 00:21:26;;;;;;;4.30;1.80;;;;;;;;;;5037203;28;20128;-59
2024/04/05 00:23:51;;;;;;;5.13;1.70;;;;;;;;;;5038679;28;20029;-59
2024/04/05 00:26:16;;;;;;;4.03;1.75;;;;;;;;;;5030619;28;20068;-61
2024/04/05 00:28:42;;;;;;;4.60;1.60;;;;;;;;;;5039699;28;20156;-60
2024/04/05 00:31:10;;;;;;;4.38;2.20;;;;;;;;;;5039697;28;20033;-61
2024/04/05 00:33:36;;;;;;;3.83;1.73;;;;;;;;;;5032080;28;20056;-60
2024/04/05 00:36:01;;;;;;;3.33;1.35;;;;;;;;;;5024331;28;20038;-59
2024/04/05 00:38:26;;;;;;;4.72;1.60;;;;;;;;;;5025108;28;20049;-60
2024/04/05 00:40:52;;;;;;;3.75;1.73;;;;;;;;;;5030059;28;20041;-59
2024/04/05 00:43:17;;;;;;;4.50;1.70;;;;;;;;;;5025735;28;20041;-60
2024/04/05 00:45:46;;;;;;;4.20;1.70;;;;;;;;;;5036490;28;20191;-61
2024/04/05 00:48:12;;;;;;;3.60;1.42;;;;;;;;;;5042822;28;20060;-60
2024/04/05 00:50:37;;;;;;;4.07;1.63;;;;;;;;;;5041517;28;20037;-61
2024/04/05 00:53:03;;;;;;;3.15;1.63;;;;;;;;;;5012749;28;20040;-62
2024/04/05 00:55:29;;;;;;;3.83;1.92;;;;;;;;;;5022573;28;20049;-59
2024/04/05 00:57:56;;;;;;;5.43;1.58;;;;;;;;;;5031544;28;20516;-60
2024/04/05 01:00:24;;;;;;;3.90;1.60;;;;;;;;;;5026895;28;20038;-59
2024/04/05 01:02:49;;;;;;;3.22;1.60;;;;;;;;;;5025060;28;20042;-60
2024/04/05 01:05:14;;;;;;;3.90;1.50;;;;;;;;;;5030375;28;20037;-60
2024/04/05 01:07:41;;;;;;;3.15;1.58;;;;;;;;;;5011500;28;20037;-60
2024/04/05 01:10:06;;;;;;;3.25;1.33;;;;;;;;;;5035675;28;20116;-60
2024/04/05 01:12:32;;;;;;;3.33;1.48;;;;;;;;;;5009355;28;20077;-61
2024/04/05 01:14:57;;;;;;;3.90;1.67;;;;;;;;;;5037765;28;20041;-60
2024/04/05 01:17:22;;;;;;;3.42;1.42;;;;;;;;;;5036785;28;20072;-59
2024/04/05 01:19:49;;;;;;;3.53;1.70;;;;;;;;;;5036176;28;20540;-59
2024/04/05 01:22:14;;;;;;;3.95;1.50;;;;;;;;;;5044797;28;20037;-63
2024/04/05 01:24:39;;;;;;;4.63;1.40;;;;;;;;;;5011089;28;20036;-59
2024/04/05 01:27:05;;;;;;;3.03;1.40;;;;;;;;;;5022206;28;20022;-60
2024/04/05 01:29:30;;;;;;;3.78;1.60;;;;;;;;;;5028504;28;20121;-63
2024/04/05 01:31:55;;;;;;;4.32;1.90;;;;;;;;;;5025801;28;20048;-59
2024/04/05 01:34:21;;;;;;;3.90;1.63;;;;;;;;;;5018215;28;20042;-61
2024/04/05 01:36:46;;;;;;;4.25;1.73;;;;;;;;;;5022517;28;20034;-61
2024/04/05 01:39:11;;;;;;;3.95;1.58;;;;;;;;;;5028360;28;20087;-59
2024/04/05 01:41:37;;;;;;;4.50;1.27;;;;;;;;;;5033427;28;20030;-59
2024/04/05 01:44:03;;;;;;;3.70;1.70;;;;;;;;;;5038556;28;20052;-59
2024/04/05 01:46:29;;;;;;;5.10;1.85;;;;;;;;;;5024927;28;20053;-59
2024/04/05 01:48:54;;;;;;;5.18;1.63;;;;;;;;;;5031101;28;20035;-59
2024/04/05 01:51:19;;;;;;;4.22;1.77;;;;;;;;;;5035754;28;20036;-60
2024/04/05 01:53:45;;;;;;;4.85;1.75;;;;;;;;;;5032020;28;20044;-59
2024/04/05 01:56:10;;;;;;;3.28;1.48;;;;;;;;;;5037559;28;20042;-59
2024/04/05 01:58:35;;;;;;;3.75;1.80;;;;;;;;;;5034531;28;20060;-59
2024/04/05 02:01:01;;;;;;;4.30;1.40;;;;;;;;;;5034453;28;20393;-59
2024/04/05 02:03:26;;;;;;;4.85;1.65;;;;;;;;;;5030486;28;20589;-59
2024/04/05 02:05:51;;;;;;;4.47;1.60;;;;;;;;;;5041399;28;20426;-59
2024/04/05 02:08:17;;;;;;;3.03;1.33;;;;;;;;;;5014948;28;20032;-59
2024/04/05 02:10:42;;;;;;;3.72;1.60;;;;;;;;;;5047435;28;20052;-59
2024/04/05 02:13:08;;;;;;;2.45;1.50;;;;;;;;;;5042036;28;20424;-60
2024/04/05 02:15:33;;;;;;;5.97;1.83;;;;;;;;;;5031621;28;20045;-62
2024/04/05 02:17:59;;;;;;;3.47;1.42;;;;;;;;;;5028768;28;20041;-62
2024/04/05 02:20:24;;;;;;;2.10;1.30;;;;;;;;;;5044006;28;20033;-60
2024/04/05 02:22:49;;;;;;;3.97;1.60;;;;;;;;;;5048254;28;20189;-60
2024/04/05 02:25:15;;;;;;;2.40;1.50;;;;;;;;;;5043125;28;20128;-62
2024/04/05 02:27:40;;;;;;;2.85;1.48;;;;;;;;;;5027837;28;20119;-59
2024/04/05 02:30:06;;;;;;;3.15;1.58;;;;;;;;;;5039885;28;20025;-60
2024/04/05 02:32:31;;;;;;;2.95;1.50;;;;;;;;;;5028833;28;20030;-60
2024/04/05 02:34:57;;;;;;;3.25;1.50;;;;;;;;;;5034663;28;20040;-61
2024/04/05 02:37:22;;;;;;;3.05;1.33;;;;;;;;;;5027955;28;20088;-60
2024/04/05 02:39:47;;;;;;;3.72;1.30;;;;;;;;;;5041178;28;20037;-60
2024/04/05 02:42:13;;;;;;;2.53;1.30;;;;;;;;;;5042957;28;20175;-60
2024/04/05 02:44:38;;;;;;;4.63;1.60;;;;;;;;;;5047430;28;20523;-61
2024/04/05 02:47:03;;;;;;;2.20;1.25;;;;;;;;;;5028771;28;20120;-62
2024/04/05 02:49:29;;;;;;;3.33;1.50;;;;;;;;;;5033950;28;20044;-61
2024/04/05 02:51:54;;;;;;;2.60;1.30;;;;;;;;;;5029670;28;20030;-60
2024/04/05 02:54:19;;;;;;;2.60;1.30;;;;;;;;;;5020431;28;20137;-60
2024/04/05 02:56:45;;;;;;;2.88;1.33;;;;;;;;;;5037159;28;20458;-60
2024/04/05 02:59:10;;;;;;;3.55;1.77;;;;;;;;;;5034026;28;20467;-60
2024/04/05 03:01:35;;;;;;;2.75;1.27;;;;;;;;;;5047593;28;20051;-60
2024/04/05 03:04:00;;;;;;;3.05;1.45;;;;;;;;;;5040888;28;20045;-59
2024/04/05 03:06:26;;;;;;;3.35;1.55;;;;;;;;;;5033950;28;20029;-60
2024/04/05 03:08:51;;;;;;;2.20;1.38;;;;;;;;;;5012363;28;20414;-60
2024/04/05 03:11:16;;;;;;;3.00;1.23;;;;;;;;;;5046084;28;20018;-63
2024/04/05 03:13:42;;;;;;;3.50;1.35;;;;;;;;;;5042182;28;20048;-61
2024/04/05 03:16:07;;;;;;;3.03;1.30;;;;;;;;;;5036751;28;20021;-60
2024/04/05 03:18:32;;;;;;;2.88;1.25;;;;;;;;;;5027073;28;20065;-60
2024/04/05 03:20:58;;;;;;;3.28;1.63;;;;;;;;;;5043641;28;20021;-60
2024/04/05 03:23:23;;;;;;;3.38;1.45;;;;;;;;;;5045666;28;20036;-59
2024/04/05 03:25:49;;;;;;;3.08;1.38;;;;;;;;;;5042849;28;20021;-59
2024/04/05 03:28:14;;;;;;;2.58;1.40;;;;;;;;;;5026858;28;20022;-58
2024/04/05 03:30:39;;;;;;;3.15;1.30;;;;;;;;;;5043123;28;20043;-59
2024/04/05 03:33:05;;;;;;;3.08;1.38;;;;;;;;;;5041582;28;20028;-59
2024/04/05 03:35:31;;;;;;;2.42;1.35;;;;;;;;;;5036067;28;20491;-59
2024/04/05 03:37:56;;;;;;;2.83;1.10;;;;;;;;;;5011674;28;20020;-60
2024/04/05 03:40:22;;;;;;;2.50;1.10;;;;;;;;;;5036467;28;20080;-64
2024/04/05 03:42:47;;;;;;;2.72;1.30;;;;;;;;;;5035963;28;20505;-60
2024/04/05 03:45:13;;;;;;;2.38;1.20;;;;;;;;;;5034274;28;20475;-61
2024/04/05 03:47:38;;;;;;;2.17;1.00;;;;;;;;;;5039711;28;20028;-61
2024/04/05 03:50:03;;;;;;;2.53;1.48;;;;;;;;;;5040190;28;20126;-60
2024/04/05 03:52:29;;;;;;;3.17;1.30;;;;;;;;;;5031553;28;20029;-62
2024/04/05 03:54:55;;;;;;;2.60;1.20;;;;;;;;;;5039260;28;20112;-61
2024/04/05 03:57:21;;;;;;;3.72;1.17;;;;;;;;;;5020741;28;20009;-59
2024/04/05 03:59:46;;;;;;;2.58;1.38;;;;;;;;;;5027390;28;20021;-61
2024/04/05 04:02:11;;;;;;;4.35;1.88;;;;;;;;;;5029419;28;20083;-62
2024/04/05 04:04:37;;;;;;;2.60;1.23;;;;;;;;;;5034132;28;20017;-61
2024/04/05 04:07:02;;;;;;;2.67;1.20;;;;;;;;;;5024864;28;20060;-62
2024/04/05 04:09:27;;;;;;;3.00;1.40;;;;;;;;;;5029805;28;20121;-67
2024/04/05 04:11:53;;;;;;;2.85;1.13;;;;;;;;;;5032434;28;20016;-58
2024/04/05 04:14:18;;;;;;;2.63;1.25;;;;;;;;;;5037655;28;20029;-60
2024/04/05 04:16:43;;;;;;;3.10;1.40;;;;;;;;;;5039291;28;20036;-62
2024/04/05 04:19:11;;;;;;;3.22;1.27;;;;;;;;;;5027318;28;20021;-66
2024/04/05 04:21:36;;;;;;;2.83;1.42;;;;;;;;;;5030211;28;20025;-60
2024/04/05 04:24:01;;;;;;;4.45;1.40;;;;;;;;;;5043532;28;20081;-59
2024/04/05 04:26:27;;;;;;;2.75;1.52;;;;;;;;;;5028175;28;20029;-61
2024/04/05 04:28:52;;;;;;;3.05;1.40;;;;;;;;;;5012179;28;20025;-62
2024/04/05 04:31:20;;;;;;;2.85;1.13;;;;;;;;;;5031842;28;20030;-64
2024/04/05 04:33:45;;;;;;;4.78;1.48;;;;;;;;;;5029847;28;20029;-62
2024/04/05 04:36:14;;;;;;;2.50;1.50;;;;;;;;;;5026852;28;20464;-61
2024/04/05 04:38:39;;;;;;;1.98;1.38;;;;;;;;;;5004932;28;20044;-62
2024/04/05 04:41:05;;;;;;;2.47;1.30;;;;;;;;;;5030188;28;20033;-61
2024/04/05 04:43:31;;;;;;;4.47;1.67;;;;;;;;;;5039472;28;20464;-62
2024/04/05 04:45:56;;;;;;;2.63;1.35;;;;;;;;;;5038762;28;20164;-61
2024/04/05 04:48:21;;;;;;;2.03;1.30;;;;;;;;;;5039219;28;20132;-61
2024/04/05 04:50:47;;;;;;;2.45;1.40;;;;;;;;;;5035152;28;20076;-63
2024/04/05 04:53:12;;;;;;;3.25;1.20;;;;;;;;;;5034686;28;20566;-62
2024/04/05 04:55:38;;;;;;;2.88;1.40;;;;;;;;;;5023639;28;20049;-62
2024/04/05 04:58:03;;;;;;;2.65;1.40;;;;;;;;;;5031885;28;20034;-62
2024/04/05 05:00:28;;;;;;;3.10;1.50;;;;;;;;;;5041783;28;20418;-61
2024/04/05 05:02:54;;;;;;;2.70;1.30;;;;;;;;;;5040577;28;20047;-63
2024/04/05 05:05:19;;;;;;;2.78;1.40;;;;;;;;;;5027507;28;20037;-63
2024/04/05 05:07:45;;;;;;;3.08;1.65;;;;;;;;;;5031974;28;20068;-60
2024/04/05 05:10:10;;;;;;;2.45;1.40;;;;;;;;;;5033101;28;20500;-62
2024/04/05 05:12:36;;;;;;;4.88;1.83;;;;;;;;;;5030501;28;20518;-64
2024/04/05 05:15:01;;;;;;;3.65;1.75;;;;;;;;;;5033442;28;20044;-60
2024/04/05 05:17:26;;;;;;;2.28;1.45;;;;;;;;;;5031259;28;20030;-65
2024/04/05 05:19:52;;;;;;;6.32;1.83;;;;;;;;;;5034061;28;20040;-57
2024/04/05 05:22:18;;;;;;;11.13;2.42;;;;;;;;;;5012114;28;20049;-58
2024/04/05 05:24:44;;;;;;;5.97;1.80;;;;;;;;;;5037135;28;20801;-59
2024/04/05 05:27:09;;;;;;;10.52;2.33;;;;;;;;;;5028916;28;20126;-59
2024/04/05 05:29:34;;;;;;;9.38;2.17;;;;;;;;;;5038666;28;20080;-58
2024/04/05 05:32:00;;;;;;;6.45;1.85;;;;;;;;;;5041385;28;20131;-58
2024/04/05 05:34:25;;;;;;;9.05;2.53;;;;;;;;;;5038069;28;20048;-58
2024/04/05 05:36:51;;;;;;;3.67;1.77;;;;;;;;;;5036207;28;20029;-61
2024/04/05 05:39:16;;;;;;;5.53;2.10;;;;;;;;;;5041300;28;20074;-59
2024/04/05 05:41:41;;;;;;;8.02;2.40;;;;;;;;;;5043569;28;20466;-59
2024/04/05 05:44:07;;;;;;;6.07;1.80;;;;;;;;;;5031015;28;20831;-62
2024/04/05 05:46:34;;;;;;;5.80;1.90;;;;;;;;;;5036343;28;20073;-64
2024/04/05 05:49:00;;;;;;;8.85;1.88;;;;;;;;;;5031730;28;20565;-59
2024/04/05 05:51:25;;;;;;;6.82;2.40;;;;;;;;;;5036984;28;20485;-59
2024/04/05 05:53:51;;;;;;;4.63;1.67;;;;;;;;;;5040313;28;20029;-58
2024/04/05 05:56:16;;;;;;;7.10;2.08;;;;;;;;;;5036840;28;20064;-58
2024/04/05 05:58:43;;;;;;;7.00;2.45;;;;;;;;;;5035924;28;20127;-58
2024/04/05 06:01:09;;;;;;;5.97;2.08;;;;;;;;;;5042713;28;20160;-59
2024/04/05 06:03:34;;;;;;;5.68;2.10;;;;;;;;;;5037598;28;20053;-58
2024/04/05 06:06:02;;;;;;;7.53;2.13;;;;;;;;;;5040311;28;20033;-59
2024/04/05 06:08:28;;;;;;;7.95;2.50;;;;;;;;;;5033839;28;20030;-58
2024/04/05 06:10:54;;;;;;;6.78;2.20;;;;;;;;;;5033292;28;20465;-58
2024/04/05 06:13:19;;;;;;;4.53;2.08;;;;;;;;;;5038906;28;20517;-58
2024/04/05 06:15:44;;;;;;;9.95;2.58;;;;;;;;;;5040897;28;20076;-60
2024/04/05 06:18:10;;;;;;;6.75;2.00;;;;;;;;;;5017080;28;20045;-59
2024/04/05 06:20:35;;;;;;;6.20;2.20;;;;;;;;;;5029907;28;20124;-59
2024/04/05 06:23:01;;;;;;;6.45;2.33;;;;;;;;;;5035641;28;20029;-59
2024/04/05 06:25:27;;;;;;;8.98;2.60;;;;;;;;;;5043942;28;20029;-59
2024/04/05 06:27:55;;;;;;;5.65;2.03;;;;;;;;;;5035795;28;20029;-61
2024/04/05 06:30:20;;;;;;;6.00;2.50;;;;;;;;;;5035081;28;20033;-58
2024/04/05 06:32:45;;;;;;;5.95;2.30;;;;;;;;;;5029950;28;20037;-59
2024/04/05 06:35:11;;;;;;;8.63;2.80;;;;;;;;;;5032917;28;20037;-58
2024/04/05 06:37:36;;;;;;;6.25;2.75;;;;;;;;;;5040835;28;20386;-59
2024/04/05 06:40:01;;;;;;;7.05;2.72;;;;;;;;;;5029082;28;20033;-59
2024/04/05 06:42:27;;;;;;;7.88;2.88;;;;;;;;;;5028028;28;20094;-60
2024/04/05 06:44:52;;;;;;;4.57;2.30;;;;;;;;;;5038513;28;20585;-59
2024/04/05 06:47:18;;;;;;;8.32;3.00;;;;;;;;;;5041749;28;20524;-60
2024/04/05 06:49:43;;;;;;;7.70;2.58;;;;;;;;;;5043364;28;20507;-59
2024/04/05 06:52:10;;;;;;;7.63;2.65;;;;;;;;;;5037469;28;20578;-59
2024/04/05 06:54:43;;;;;;;6.95;2.45;;;;;;;;;;5042917;28;20534;-59
2024/04/05 06:57:09;;;;;;;6.85;2.88;;;;;;;;;;5038351;28;20045;-59
2024/04/05 06:59:34;;;;;;;6.63;2.67;;;;;;;;;;5035837;28;20388;-61
2024/04/05 07:01:59;;;;;;;8.02;2.55;;;;;;;;;;5035837;28;20068;-59
2024/04/05 07:04:26;;;;;;;10.45;3.00;;;;;;;;;;5033935;28;20112;-59
2024/04/05 07:06:52;;;;;;;9.30;3.03;;;;;;;;;;5017666;28;20034;-59
2024/04/05 07:09:20;;;;;;;7.53;3.05;;;;;;;;;;5035462;28;20029;-59
2024/04/05 07:11:45;;;;;;;8.40;2.60;;;;;;;;;;5033928;28;20037;-61
2024/04/05 07:14:11;;;;;;;11.73;3.10;;;;;;;;;;5031761;28;20041;-60
2024/04/05 07:16:36;;;;;;;7.20;2.58;;;;;;;;;;5034363;28;20120;-59
2024/04/05 07:19:01;;;;;;;9.15;3.05;;;;;;;;;;5031803;28;20072;-60
2024/04/05 07:21:27;;;;;;;7.53;2.90;;;;;;;;;;5034394;28;20033;-60
2024/04/05 07:23:54;;;;;;;6.63;2.78;;;;;;;;;;5036767;28;20044;-64
2024/04/05 07:26:20;;;;;;;7.07;3.10;;;;;;;;;;5033636;28;20113;-59
2024/04/05 07:28:45;;;;;;;7.28;3.13;;;;;;;;;;5028828;28;20041;-61
2024/04/05 07:31:11;;;;;;;6.75;2.75;;;;;;;;;;5032647;28;20128;-61
2024/04/05 07:33:36;;;;;;;5.38;2.40;;;;;;;;;;5040022;28;20060;-60
2024/04/05 07:36:01;;;;;;;8.50;2.90;;;;;;;;;;5046593;28;20082;-62
2024/04/05 07:38:27;;;;;;;8.45;3.10;;;;;;;;;;5034327;28;20610;-60
2024/04/05 07:41:01;;;;;;;8.10;2.88;;;;;;;;;;5033093;28;20041;-59
2024/04/05 07:43:26;;;;;;;6.63;3.28;;;;;;;;;;5025564;28;20372;-59
2024/04/05 07:45:51;;;;;;;6.93;2.80;;;;;;;;;;5036574;28;20187;-59
2024/04/05 07:48:17;;;;;;;8.68;2.80;;;;;;;;;;5030197;28;20119;-58
2024/04/05 07:50:43;;;;;;;7.45;2.90;;;;;;;;;;5037833;28;20041;-64
2024/04/05 07:53:08;;;;;;;8.63;2.85;;;;;;;;;;5041051;28;20106;-58
2024/04/05 07:55:33;;;;;;;6.75;2.70;;;;;;;;;;5044802;28;20045;-59
2024/04/05 07:57:58;;;;;;;7.10;2.83;;;;;;;;;;5033354;28;20144;-60
2024/04/05 08:00:25;;;;;;;7.32;3.00;;;;;;;;;;5034962;28;20758;-58
2024/04/05 08:02:50;;;;;;;5.75;2.60;;;;;;;;;;5037809;28;20033;-59
2024/04/05 08:05:16;;;;;;;7.50;2.90;;;;;;;;;;5032013;28;20044;-59
2024/04/05 08:07:42;;;;;;;5.72;2.92;;;;;;;;;;5034582;28;20033;-59
2024/04/05 08:10:09;;;;;;;6.78;2.75;;;;;;;;;;5036723;28;20028;-59
2024/04/05 08:12:34;;;;;;;8.52;3.30;;;;;;;;;;5043066;28;21120;-58
2024/04/05 08:14:59;;;;;;;8.20;3.13;;;;;;;;;;5043435;28;20044;-60
2024/04/05 08:17:25;;;;;;;6.18;2.97;;;;;;;;;;5038825;28;20025;-59
2024/04/05 08:19:50;;;;;;;10.18;3.10;;;;;;;;;;5034571;28;20034;-60
2024/04/05 08:22:16;;;;;;;7.38;2.80;;;;;;;;;;5038938;28;20037;-60
2024/04/05 08:24:41;;;;;;;6.93;2.78;;;;;;;;;;5035215;28;20060;-59
2024/04/05 08:27:07;;;;;;;7.00;2.53;;;;;;;;;;5042789;28;20029;-61
2024/04/05 08:29:32;;;;;;;8.75;2.83;;;;;;;;;;5027727;28;20492;-60
2024/04/05 08:31:57;;;;;;;7.70;2.45;;;;;;;;;;5035301;28;20045;-59
2024/04/05 08:34:22;;;;;;;8.25;2.50;;;;;;;;;;5037699;28;20144;-62
2024/04/05 08:36:48;;;;;;;4.80;2.58;;;;;;;;;;5037256;28;20080;-59
2024/04/05 08:39:14;;;;;;;5.15;2.38;;;;;;;;;;5014242;28;20095;-59
2024/04/05 08:41:39;;;;;;;5.10;2.45;;;;;;;;;;5033064;28;20140;-59
2024/04/05 08:44:05;;;;;;;5.68;2.38;;;;;;;;;;5022630;28;20033;-59
2024/04/05 08:46:31;;;;;;;6.70;2.00;;;;;;;;;;5032954;28;20069;-59
2024/04/05 08:48:56;;;;;;;8.27;2.60;;;;;;;;;;5033321;28;20060;-59
2024/04/05 08:51:22;;;;;;;4.80;1.77;;;;;;;;;;5033368;28;20028;-59
2024/04/05 08:53:48;;;;;;;5.95;2.30;;;;;;;;;;5018153;28;20064;-58
2024/04/05 08:56:13;;;;;;;6.00;2.38;;;;;;;;;;5040531;28;20039;-65
2024/04/05 08:58:38;;;;;;;5.90;1.95;;;;;;;;;;5018810;28;20473;-59
2024/04/05 09:01:04;;;;;;;6.60;2.05;;;;;;;;;;5033910;28;20041;-58
2024/04/05 09:03:29;;;;;;;3.85;1.92;;;;;;;;;;5023776;28;20033;-59
2024/04/05 09:05:54;;;;;;;4.78;1.52;;;;;;;;;;5037665;28;20034;-58
2024/04/05 09:08:20;;;;;;;3.83;1.60;;;;;;;;;;5022943;28;20069;-58
2024/04/05 09:10:49;;;;;;;5.05;1.70;;;;;;;;;;5017343;28;20068;-61
2024/04/05 09:13:16;;;;;;;4.40;1.83;;;;;;;;;;5038450;28;22086;-60
2024/04/05 09:15:42;;;;;;;4.13;1.65;;;;;;;;;;5041095;28;20033;-60
2024/04/05 09:18:07;;;;;;;7.60;2.13;;;;;;;;;;5049953;28;20114;-60
2024/04/05 09:20:33;;;;;;;3.42;1.52;;;;;;;;;;5042278;28;20029;-60
2024/04/05 09:23:01;;;;;;;3.00;1.50;;;;;;;;;;5014004;28;20037;-59
2024/04/05 09:25:27;;;;;;;4.07;1.25;;;;;;;;;;5034915;28;20121;-60
2024/04/05 09:28:04;;;;;;;2.85;1.27;;;;;;;;;;5044614;28;20260;-59
2024/04/05 09:30:29;;;;;;;4.00;1.52;;;;;;;;;;5037706;28;20037;-59
2024/04/05 09:32:54;;;;;;;4.13;1.70;;;;;;;;;;5037038;28;20025;-59
2024/04/05 09:35:19;;;;;;;4.43;1.17;;;;;;;;;;5032719;28;20052;-60
2024/04/05 09:37:46;;;;;;;2.88;1.33;;;;;;;;;;5017677;28;20040;-59
2024/04/05 09:40:12;;;;;;;3.15;1.00;;;;;;;;;;5038386;28;20028;-58
2024/04/05 09:42:40;;;;;;;3.17;0.98;;;;;;;;;;5037077;28;20029;-61
2024/04/05 09:45:06;;;;;;;2.90;0.77;;;;;;;;;;5034738;28;20069;-59
2024/04/05 09:47:32;;;;;;;3.75;1.17;;;;;;;;;;5035424;28;20030;-60
2024/04/05 09:49:58;;;;;;;3.78;1.00;;;;;;;;;;5033325;28;20401;-59
2024/04/05 09:52:24;;;;;;;3.20;0.73;;;;;;;;;;5036549;28;20083;-59
2024/04/05 09:54:53;;;;;;;2.22;0.65;;;;;;;;;;5018995;28;20072;-61
2024/04/05 09:57:18;;;;;;;3.15;0.88;;;;;;;;;;5044505;28;20491;-59
2024/04/05 09:59:44;;;;;;;2.60;0.88;;;;;;;;;;5038933;28;20040;-61
2024/04/05 10:02:09;;;;;;;3.15;1.30;;;;;;;;;;5022120;28;20029;-58
2024/04/05 10:04:36;;;;;;;4.75;1.20;;;;;;;;;;5039849;28;20061;-59
2024/04/05 10:07:05;;;;;;;3.78;1.45;;;;;;;;;;5029134;28;20021;-60
2024/04/05 10:09:32;;;;;;;3.85;0.93;;;;;;;;;;5032360;28;20108;-58
2024/04/05 10:11:58;;;;;;;3.08;1.17;;;;;;;;;;5041709;28;20067;-58
2024/04/05 10:14:27;;;;;;;4.13;0.82;;;;;;;;;;5043666;28;20439;-58
2024/04/05 10:16:53;;;;;;;3.78;0.80;;;;;;;;;;5033235;28;20084;-61
2024/04/05 10:19:18;;;;;;;1.45;0.60;;;;;;;;;;5021658;28;20416;-56
2024/04/05 10:21:44;;;;;;;2.83;0.80;;;;;;;;;;5014341;28;20424;-57
2024/04/05 10:24:10;;;;;;;3.10;0.82;;;;;;;;;;5038161;28;20020;-60
2024/04/05 10:26:36;;;;;;;2.22;0.60;;;;;;;;;;5036746;28;20017;-59
2024/04/05 10:29:03;;;;;;;1.88;0.60;;;;;;;;;;5031298;28;20532;-59
2024/04/05 10:31:29;;;;;;;2.28;0.70;;;;;;;;;;5032697;28;20048;-58
2024/04/05 10:33:54;;;;;;;3.00;0.90;;;;;;;;;;5039746;28;20041;-59
2024/04/05 10:36:20;;;;;;;2.13;0.60;;;;;;;;;;5038395;28;20108;-59
2024/04/05 10:38:46;;;;;;;2.05;0.70;;;;;;;;;;5039074;28;20033;-57
2024/04/05 10:41:13;;;;;;;2.50;0.60;;;;;;;;;;5041497;28;20839;-57
2024/04/05 10:43:39;;;;;;;2.55;0.60;;;;;;;;;;5015582;28;20510;-58
2024/04/05 10:46:05;;;;;;;2.55;0.70;;;;;;;;;;5040617;28;20041;-58
2024/04/05 10:48:31;;;;;;;2.08;0.88;;;;;;;;;;5046803;28;20112;-58
2024/04/05 10:50:57;;;;;;;2.85;0.68;;;;;;;;;;5041139;28;20120;-60
2024/04/05 10:53:22;;;;;;;1.77;0.65;;;;;;;;;;5037846;28;20034;-59
2024/04/05 10:55:51;;;;;;;3.25;0.60;;;;;;;;;;5037621;28;20416;-61
2024/04/05 10:58:16;;;;;;;4.90;0.60;;;;;;;;;;5018287;28;20049;-58
2024/04/05 11:00:41;;;;;;;3.20;0.70;;;;;;;;;;5018676;28;20052;-58
2024/04/05 11:03:07;;;;;;;1.92;0.57;;;;;;;;;;5022194;28;20687;-58
2024/04/05 11:05:33;;;;;;;2.58;0.80;;;;;;;;;;5032966;28;20029;-58
2024/04/05 11:07:59;;;;;;;4.45;0.90;;;;;;;;;;5032641;28;20038;-62
2024/04/05 11:10:24;;;;;;;1.52;0.50;;;;;;;;;;5035530;28;20033;-59
2024/04/05 11:12:50;;;;;;;2.45;0.80;;;;;;;;;;5016879;28;20093;-63
2024/04/05 11:15:18;;;;;;;2.05;0.55;;;;;;;;;;5035769;28;20045;-58
2024/04/05 11:17:46;;;;;;;1.38;0.52;;;;;;;;;;5031585;28;20140;-61
2024/04/05 11:20:11;;;;;;;3.35;0.65;;;;;;;;;;5035626;28;20099;-58
2024/04/05 11:22:37;;;;;;;8.50;1.00;;;;;;;;;;5029503;28;20034;-62
2024/04/05 11:25:02;;;;;;;1.45;0.60;;;;;;;;;;5022579;28;20033;-58
2024/04/05 11:27:29;;;;;;;2.45;0.70;;;;;;;;;;5034946;28;20032;-60
2024/04/05 11:29:54;;;;;;;2.95;0.60;;;;;;;;;;5045771;28;20577;-58
2024/04/05 11:32:32;;;;;;;2.17;0.70;;;;;;;;;;5024407;28;20112;-60
2024/04/05 11:35:03;;;;;;;1.92;0.50;;;;;;;;;;5032929;28;20065;-58
2024/04/05 11:37:29;;;;;;;2.00;0.65;;;;;;;;;;5039847;28;20069;-60
2024/04/05 11:39:58;;;;;;;1.25;0.55;;;;;;;;;;5042052;28;20067;-58
2024/04/05 11:42:23;;;;;;;1.88;0.60;;;;;;;;;;5038406;28;20044;-58
2024/04/05 11:44:49;;;;;;;3.33;0.70;;;;;;;;;;5029360;28;20060;-59
2024/04/05 11:47:14;;;;;;;2.00;0.40;;;;;;;;;;5037507;28;20124;-58
2024/04/05 11:49:39;;;;;;;2.00;0.73;;;;;;;;;;5030692;28;20041;-58
2024/04/05 11:52:05;;;;;;;3.15;0.50;;;;;;;;;;5029801;28;20037;-58
2024/04/05 11:54:31;;;;;;;1.35;0.52;;;;;;;;;;5032715;28;20136;-58
2024/04/05 11:56:56;;;;;;;3.90;0.63;;;;;;;;;;5038658;28;20097;-59
2024/04/05 11:59:22;;;;;;;1.38;0.70;;;;;;;;;;5034514;28;20507;-61
2024/04/05 12:01:47;;;;;;;2.58;1.00;;;;;;;;;;5030908;28;20492;-57
2024/04/05 12:04:12;;;;;;;1.52;0.57;;;;;;;;;;5037189;28;20029;-59
2024/04/05 12:06:38;;;;;;;2.55;0.60;;;;;;;;;;5032005;28;20032;-65
2024/04/05 12:09:04;;;;;;;1.35;0.50;;;;;;;;;;5030515;28;20029;-58
2024/04/05 12:11:30;;;;;;;15.02;1.75;;;;;;;;;;5030619;28;20033;-57
2024/04/05 12:13:55;;;;;;;3.92;0.60;;;;;;;;;;5040956;28;20416;-59
2024/04/05 12:16:21;;;;;;;2.28;0.50;;;;;;;;;;5023418;28;20515;-65
2024/04/05 12:18:46;;;;;;;6.03;0.80;;;;;;;;;;5039738;28;20040;-58
2024/04/05 12:21:11;;;;;;;5.40;0.70;;;;;;;;;;5026638;28;20052;-58
2024/04/05 12:23:37;;;;;;;3.22;0.55;;;;;;;;;;5028677;28;20033;-57
2024/04/05 12:26:02;;;;;;;2.47;0.70;;;;;;;;;;5037789;28;20061;-62
2024/04/05 12:28:28;;;;;;;2.88;0.73;;;;;;;;;;5032974;28;20161;-62
2024/04/05 12:30:53;;;;;;;3.58;0.60;;;;;;;;;;5034522;28;20199;-63
2024/04/05 12:33:19;;;;;;;1.90;0.60;;;;;;;;;;5033742;28;20095;-59
2024/04/05 12:36:06;;;;;;;3.55;0.50;;;;;;;;;;5042409;28;20045;-59
2024/04/05 12:38:38;;;;;;;2.65;0.63;;;;;;;;;;5038161;28;20148;-58
2024/04/05 12:41:04;;;;;;;2.42;0.68;;;;;;;;;;5035542;28;20061;-57
2024/04/05 12:43:29;;;;;;;1.85;0.70;;;;;;;;;;5023296;28;20160;-57
2024/04/05 12:46:07;;;;;;;2.10;0.50;;;;;;;;;;5033480;28;20044;-59
2024/04/05 12:48:32;;;;;;;2.38;0.50;;;;;;;;;;5030847;28;20026;-61
2024/04/05 12:50:58;;;;;;;2.28;0.50;;;;;;;;;;5035065;28;20045;-58
2024/04/05 12:53:24;;;;;;;2.60;0.68;;;;;;;;;;5043257;28;20032;-58
2024/04/05 12:55:56;;;;;;;2.58;0.60;;;;;;;;;;5020576;28;20132;-59
2024/04/05 12:58:22;;;;;;;2.33;0.65;;;;;;;;;;5013832;28;20392;-61
2024/04/05 13:00:48;;;;;;;2.88;0.50;;;;;;;;;;5039978;28;20048;-59
2024/04/05 13:03:13;;;;;;;2.05;0.50;;;;;;;;;;5009823;28;20029;-58
2024/04/05 13:05:38;;;;;;;1.73;0.50;;;;;;;;;;5033275;28;20041;-58
2024/04/05 13:08:04;;;;;;;2.58;0.50;;;;;;;;;;5034110;28;20513;-59
2024/04/05 13:10:29;;;;;;;2.17;0.50;;;;;;;;;;5030887;28;20507;-58
2024/04/05 13:12:55;;;;;;;2.38;0.35;;;;;;;;;;5040095;28;20101;-59
2024/04/05 13:15:20;;;;;;;4.72;0.55;;;;;;;;;;5031324;28;20038;-60
2024/04/05 13:17:46;;;;;;;3.42;0.70;;;;;;;;;;5037049;28;20100;-58
2024/04/05 13:20:11;;;;;;;3.20;0.80;;;;;;;;;;5030163;28;20045;-58
2024/04/05 13:22:36;;;;;;;2.60;0.52;;;;;;;;;;5043260;28;20068;-59
2024/04/05 13:25:02;;;;;;;2.67;0.55;;;;;;;;;;5038358;28;20060;-60
2024/04/05 13:27:27;;;;;;;1.85;0.50;;;;;;;;;;5031106;28;20061;-58
2024/04/05 13:29:53;;;;;;;2.33;0.60;;;;;;;;;;5028674;28;20037;-59
2024/04/05 13:32:19;;;;;;;1.75;0.50;;;;;;;;;;5038340;28;20064;-60
2024/04/05 13:34:45;;;;;;;2.45;0.80;;;;;;;;;;5028653;28;20047;-59
2024/04/05 13:37:11;;;;;;;4.03;0.80;;;;;;;;;;5032769;28;20427;-59
2024/04/05 13:39:37;;;;;;;2.00;0.50;;;;;;;;;;5036105;28;20033;-59
2024/04/05 13:42:03;;;;;;;3.30;0.60;;;;;;;;;;5040092;28;20044;-59
2024/04/05 13:44:29;;;;;;;2.13;0.70;;;;;;;;;;5037934;28;20106;-59
2024/04/05 13:46:54;;;;;;;1.05;0.60;;;;;;;;;;5037455;28;20063;-59
2024/04/05 13:49:19;;;;;;;1.83;0.60;;;;;;;;;;5035682;28;20467;-60
2024/04/05 13:51:45;;;;;;;3.08;0.52;;;;;;;;;;5042589;28;20594;-59
2024/04/05 13:54:10;;;;;;;1.48;0.52;;;;;;;;;;5029898;28;20056;-59
2024/04/05 13:56:38;;;;;;;1.30;0.52;;;;;;;;;;5048787;28;20099;-59
2024/04/05 13:59:04;;;;;;;2.20;0.70;;;;;;;;;;5025730;28;20024;-63
2024/04/05 14:01:29;;;;;;;2.33;0.68;;;;;;;;;;5037800;28;20450;-64
2024/04/05 14:03:55;;;;;;;4.43;0.60;;;;;;;;;;5038406;28;20040;-58
2024/04/05 14:06:21;;;;;;;4.97;0.80;;;;;;;;;;5009581;28;20484;-58
2024/04/05 14:08:46;;;;;;;6.35;0.70;;;;;;;;;;5040955;28;20031;-60
2024/04/05 14:11:12;;;;;;;4.18;0.60;;;;;;;;;;5037041;28;20052;-58
2024/04/05 14:13:37;;;;;;;4.18;0.80;;;;;;;;;;5042773;28;20059;-58
2024/04/05 14:16:03;;;;;;;3.90;0.60;;;;;;;;;;5020370;28;20083;-59
2024/04/05 14:18:28;;;;;;;3.45;0.80;;;;;;;;;;5039904;28;20037;-59
2024/04/05 14:20:56;;;;;;;3.63;0.68;;;;;;;;;;5033016;28;20033;-58
2024/04/05 14:23:22;;;;;;;2.08;0.52;;;;;;;;;;5029034;28;20017;-59
2024/04/05 14:25:53;;;;;;;3.00;0.60;;;;;;;;;;5012107;28;20037;-58
2024/04/05 14:28:19;;;;;;;2.58;0.60;;;;;;;;;;5034204;28;20038;-59
2024/04/05 14:30:52;;;;;;;1.70;0.60;;;;;;;;;;5031392;28;20148;-58
2024/04/05 14:33:17;;;;;;;2.65;0.70;;;;;;;;;;5034457;28;20415;-58
2024/04/05 14:35:43;;;;;;;2.97;0.60;;;;;;;;;;5021086;28;20042;-58